createdAt,value
2024-02-18T00:01:22.387Z,100174.19
2024-02-18T00:03:49.643Z,100164.75
2024-02-18T00:06:16.692Z,100162.41
2024-02-18T00:08:43.557Z,100178.66
2024-02-18T00:11:10.449Z,100146.50
2024-02-18T00:13:38.046Z,100168.59
2024-02-18T00:16:05.530Z,100183.94
2024-02-18T00:18:32.294Z,100140.94
2024-02-18T00:20:59.081Z,100127.88
2024-02-18T00:23:26.287Z,100144.53
2024-02-18T00:25:53.583Z,100184.91
2024-02-18T00:28:21.474Z,100173.88
2024-02-18T00:30:50.548Z,100137.66
2024-02-18T00:33:17.905Z,100128.31
2024-02-18T00:35:45.686Z,100146.56
2024-02-18T00:38:22.018Z,100126.81
2024-02-18T00:40:51.112Z,100160.78
2024-02-18T00:43:18.152Z,100110.56
2024-02-18T00:45:45.010Z,100104.28
2024-02-18T00:48:13.372Z,100096.84
2024-02-18T00:50:41.627Z,100122.53
2024-02-18T00:53:08.524Z,100159.72
2024-02-18T00:55:35.995Z,100113.63
2024-02-18T00:58:02.986Z,100139.66
2024-02-18T01:00:31.114Z,100130.13
2024-02-18T01:02:57.925Z,100160.59
2024-02-18T01:05:26.743Z,100069.41
2024-02-18T01:07:53.762Z,100087.22
2024-02-18T01:10:20.912Z,100162.47
2024-02-18T01:12:49.248Z,100032.78
2024-02-18T01:15:16.510Z,100147.28
2024-02-18T01:17:44.155Z,100165.56
2024-02-18T01:20:12.818Z,100126.19
2024-02-18T01:22:39.611Z,100184.19
2024-02-18T01:25:06.770Z,100081.81
2024-02-18T01:27:33.629Z,100071.53
2024-02-18T01:30:04.702Z,100175.69
2024-02-18T01:32:31.857Z,100113.53
2024-02-18T01:34:58.875Z,100176.22
2024-02-18T01:37:26.575Z,100176.22
2024-02-18T01:39:54.356Z,100136.69
2024-02-18T01:42:21.464Z,100177.19
2024-02-18T01:44:49.299Z,100176.66
2024-02-18T01:47:16.239Z,100173.56
2024-02-18T01:49:43.533Z,100164.81
2024-02-18T01:52:13.151Z,100146.22
2024-02-18T01:54:40.718Z,100163.34
2024-02-18T01:57:09.592Z,100164.19
2024-02-18T01:59:37.852Z,100174.19
2024-02-18T02:02:04.973Z,100138.78
2024-02-18T02:04:31.812Z,100149.00
2024-02-18T02:07:01.641Z,100169.50
2024-02-18T02:09:30.994Z,100123.50
2024-02-18T02:11:58.152Z,100152.50
2024-02-18T02:14:25.832Z,100144.63
2024-02-18T02:16:53.074Z,100169.38
2024-02-18T02:19:23.877Z,100161.00
2024-02-18T02:21:51.832Z,100134.34
2024-02-18T02:24:19.047Z,100162.16
2024-02-18T02:26:52.208Z,100154.13
2024-02-18T02:29:19.370Z,100137.66
2024-02-18T02:31:47.606Z,100114.38
2024-02-18T02:34:17.694Z,100131.50
2024-02-18T02:36:45.321Z,100099.88
2024-02-18T02:39:12.821Z,100134.47
2024-02-18T02:41:39.934Z,100138.00
2024-02-18T02:44:06.707Z,100121.19
2024-02-18T02:46:34.656Z,100136.16
2024-02-18T02:49:02.726Z,100078.53
2024-02-18T02:51:29.480Z,100015.16
2024-02-18T02:53:56.251Z,100087.84
2024-02-18T02:56:24.569Z,100066.19
2024-02-18T02:58:51.157Z,100136.59
2024-02-18T03:01:20.156Z,100131.91
2024-02-18T03:03:49.012Z,100014.53
2024-02-18T03:06:15.921Z,100128.81
2024-02-18T03:08:44.144Z,100108.59
2024-02-18T03:11:11.121Z,100133.69
2024-02-18T03:13:37.861Z,100092.25
2024-02-18T03:16:05.577Z,100095.97
2024-02-18T03:18:36.700Z,100063.09
2024-02-18T03:21:06.944Z,100073.19
2024-02-18T03:23:35.237Z,100109.28
2024-02-18T03:26:03.426Z,100152.53
2024-02-18T03:28:31.222Z,100146.47
2024-02-18T03:30:58.906Z,100138.38
2024-02-18T03:33:26.210Z,100135.84
2024-02-18T03:35:53.906Z,100158.53
2024-02-18T03:38:23.852Z,100091.66
2024-02-18T03:40:52.244Z,100112.50
2024-02-18T03:43:18.921Z,100112.34
2024-02-18T03:45:47.154Z,100156.34
2024-02-18T03:48:15.446Z,100161.78
2024-02-18T03:50:42.938Z,100164.44
2024-02-18T03:53:09.546Z,100131.25
2024-02-18T03:55:37.050Z,100156.16
2024-02-18T03:58:04.015Z,100148.59
2024-02-18T04:00:30.729Z,100159.66
2024-02-18T04:02:58.459Z,100157.88
2024-02-18T04:05:25.390Z,100142.16
2024-02-18T04:07:52.273Z,100152.59
2024-02-18T04:10:22.421Z,100138.16
2024-02-18T04:12:49.381Z,100113.00
2024-02-18T04:15:16.925Z,100163.41
2024-02-18T04:17:44.065Z,100160.22
2024-02-18T04:20:12.325Z,100164.19
2024-02-18T04:22:39.797Z,100162.03
2024-02-18T04:25:07.224Z,100161.75
2024-02-18T04:27:33.954Z,100156.19
2024-02-18T04:30:01.170Z,100147.38
2024-02-18T04:32:28.005Z,100163.81
2024-02-18T04:34:55.359Z,100170.34
2024-02-18T04:37:25.576Z,100142.28
2024-02-18T04:39:53.523Z,100133.78
2024-02-18T04:42:20.561Z,100089.47
2024-02-18T04:44:50.150Z,100179.00
2024-02-18T04:47:17.644Z,100178.25
2024-02-18T04:49:44.772Z,100141.94
2024-02-18T04:52:12.840Z,100156.84
2024-02-18T04:54:40.420Z,100158.09
2024-02-18T04:57:08.004Z,100149.75
2024-02-18T04:59:35.653Z,100182.19
2024-02-18T05:02:04.445Z,100176.81
2024-02-18T05:04:32.922Z,100182.09
2024-02-18T05:07:00.981Z,100140.59
2024-02-18T05:09:28.375Z,100169.16
2024-02-18T05:11:56.524Z,100155.19
2024-02-18T05:14:24.219Z,100150.44
2024-02-18T05:16:51.060Z,100193.19
2024-02-18T05:19:19.738Z,100191.19
2024-02-18T05:21:47.533Z,100174.53
2024-02-18T05:24:17.974Z,100187.88
2024-02-18T05:26:44.697Z,100155.25
2024-02-18T05:29:11.821Z,100119.53
2024-02-18T05:31:39.622Z,100075.56
2024-02-18T05:34:07.659Z,100094.69
2024-02-18T05:36:34.802Z,100154.00
2024-02-18T05:39:06.174Z,100131.53
2024-02-18T05:41:32.893Z,100141.28
2024-02-18T05:44:00.048Z,100097.97
2024-02-18T05:46:27.325Z,100129.63
2024-02-18T05:48:54.300Z,100154.06
2024-02-18T05:51:21.337Z,100121.94
2024-02-18T05:53:48.896Z,100129.53
2024-02-18T05:56:17.664Z,100179.44
2024-02-18T05:58:44.975Z,100137.38
2024-02-18T06:01:11.791Z,100110.91
2024-02-18T06:03:39.571Z,100179.84
2024-02-18T06:06:08.498Z,100179.38
2024-02-18T06:08:35.422Z,100136.53
2024-02-18T06:11:09.942Z,100184.47
2024-02-18T06:13:36.762Z,100183.06
2024-02-18T06:16:05.068Z,100162.69
2024-02-18T06:18:31.980Z,100171.41
2024-02-18T06:21:00.108Z,100150.31
2024-02-18T06:23:27.462Z,100190.91
2024-02-18T06:25:55.115Z,100199.06
2024-02-18T06:28:22.425Z,100166.69
2024-02-18T06:30:49.351Z,100146.94
2024-02-18T06:33:16.607Z,100174.72
2024-02-18T06:35:44.753Z,100198.63
2024-02-18T06:38:11.657Z,100186.06
2024-02-18T06:40:38.563Z,100176.69
2024-02-18T06:43:07.946Z,100184.91
2024-02-18T06:45:34.846Z,100112.88
2024-02-18T06:48:01.776Z,100124.59
2024-02-18T06:50:29.917Z,100146.97
2024-02-18T06:52:56.726Z,100195.84
2024-02-18T06:55:23.805Z,100151.69
2024-02-18T06:57:50.695Z,100193.25
2024-02-18T07:00:20.245Z,100106.22
2024-02-18T07:02:48.678Z,100157.78
2024-02-18T07:05:15.455Z,100117.47
2024-02-18T07:07:42.518Z,100153.38
2024-02-18T07:10:09.339Z,100182.25
2024-02-18T07:12:36.332Z,100178.28
2024-02-18T07:15:04.303Z,100193.63
2024-02-18T07:17:31.077Z,100185.59
2024-02-18T07:19:58.175Z,100158.28
2024-02-18T07:22:26.036Z,100124.31
2024-02-18T07:24:52.734Z,100177.56
2024-02-18T07:27:22.581Z,100158.97
2024-02-18T07:29:50.634Z,100195.78
2024-02-18T07:32:17.377Z,100156.75
2024-02-18T07:34:45.289Z,100186.34
2024-02-18T07:37:12.446Z,100153.28
2024-02-18T07:39:39.394Z,100193.06
2024-02-18T07:42:07.831Z,100159.44
2024-02-18T07:44:38.863Z,100200.75
2024-02-18T07:47:05.609Z,100181.69
2024-02-18T07:49:33.684Z,100159.63
2024-02-18T07:52:01.138Z,100183.16
2024-02-18T07:54:28.367Z,100203.19
2024-02-18T07:56:58.672Z,100168.44
2024-02-18T07:59:27.635Z,100193.75
2024-02-18T08:01:55.670Z,100169.53
2024-02-18T08:04:24.585Z,100189.97
2024-02-18T08:06:52.556Z,100178.69
2024-02-18T08:09:19.930Z,100150.00
2024-02-18T08:11:46.732Z,100176.88
2024-02-18T08:14:13.900Z,100186.91
2024-02-18T08:16:41.111Z,100174.38
2024-02-18T08:19:08.181Z,100187.44
2024-02-18T08:21:35.923Z,100182.59
2024-02-18T08:24:02.573Z,100190.75
2024-02-18T08:26:31.008Z,100121.25
2024-02-18T08:28:58.149Z,100098.72
2024-02-18T08:31:25.409Z,100188.50
2024-02-18T08:33:52.526Z,100176.91
2024-02-18T08:36:19.447Z,100188.38
2024-02-18T08:41:49.482Z,100138.16
2024-02-18T08:44:16.325Z,100181.41
2024-02-18T08:46:43.452Z,100195.38
2024-02-18T08:49:10.450Z,100170.94
2024-02-18T08:51:40.300Z,100168.28
2024-02-18T08:54:09.306Z,100185.81
2024-02-18T08:56:36.974Z,100183.59
2024-02-18T08:59:03.827Z,100154.38
2024-02-18T09:01:30.814Z,100187.13
2024-02-18T09:03:59.053Z,100184.25
2024-02-18T09:06:26.037Z,100178.09
2024-02-18T09:08:52.815Z,100154.25
2024-02-18T09:11:20.936Z,100163.06
2024-02-18T09:13:47.671Z,100192.34
2024-02-18T09:16:14.537Z,100168.78
2024-02-18T09:18:41.404Z,100154.78
2024-02-18T09:21:09.991Z,100182.19
2024-02-18T09:23:39.339Z,100174.84
2024-02-18T09:26:09.220Z,100200.22
2024-02-18T09:28:35.893Z,100177.78
2024-02-18T09:31:04.657Z,100183.13
2024-02-18T09:33:31.774Z,100148.81
2024-02-18T09:36:00.337Z,100180.56
2024-02-18T09:38:27.470Z,100201.28
2024-02-18T09:40:56.158Z,100180.25
2024-02-18T09:43:26.204Z,100181.66
2024-02-18T09:45:55.853Z,100192.72
2024-02-18T09:48:23.352Z,100195.34
2024-02-18T09:50:53.418Z,100164.88
2024-02-18T09:53:20.262Z,100192.25
2024-02-18T09:55:49.703Z,100170.75
2024-02-18T09:58:16.640Z,100190.00
2024-02-18T10:00:45.811Z,100166.22
2024-02-18T10:03:13.215Z,100167.53
2024-02-18T10:05:40.831Z,100189.81
2024-02-18T10:08:08.098Z,100164.16
2024-02-18T10:10:35.842Z,100191.53
2024-02-18T10:13:05.949Z,100171.78
2024-02-18T10:15:35.323Z,100141.75
2024-02-18T10:18:11.494Z,100108.38
2024-02-18T10:20:42.674Z,100148.97
2024-02-18T10:23:14.184Z,100169.03
2024-02-18T10:25:42.634Z,100182.13
2024-02-18T10:28:10.241Z,100151.00
2024-02-18T10:30:39.142Z,100138.72
2024-02-18T10:33:06.044Z,100153.59
2024-02-18T10:35:32.940Z,100172.56
2024-02-18T10:38:01.211Z,100154.25
2024-02-18T10:40:40.918Z,100172.28
2024-02-18T10:43:13.154Z,100164.09
2024-02-18T10:45:43.534Z,100154.13
2024-02-18T10:48:12.804Z,100168.44
2024-02-18T10:50:47.164Z,100159.75
2024-02-18T10:53:26.726Z,100166.97
2024-02-18T10:56:04.489Z,100160.59
2024-02-18T10:59:07.097Z,100155.16
2024-02-18T11:01:51.111Z,100155.72
2024-02-18T11:04:21.509Z,100140.63
2024-02-18T11:06:50.354Z,100036.94
2024-02-18T11:09:18.986Z,100050.72
2024-02-18T11:11:48.524Z,100141.72
2024-02-18T11:14:17.224Z,100156.78
2024-02-18T11:16:46.837Z,100143.34
2024-02-18T11:19:14.722Z,100154.44
2024-02-18T11:21:43.845Z,100147.53
2024-02-18T11:24:11.002Z,100149.19
2024-02-18T11:26:38.062Z,100093.75
2024-02-18T11:29:05.630Z,100082.13
2024-02-18T11:31:33.676Z,100122.13
2024-02-18T11:34:02.270Z,100123.13
2024-02-18T11:36:29.738Z,100116.84
2024-02-18T11:38:58.877Z,100093.06
2024-02-18T11:41:34.706Z,100100.31
2024-02-18T11:44:08.805Z,100101.94
2024-02-18T11:46:45.201Z,100101.28
2024-02-18T11:49:14.701Z,100088.25
2024-02-18T11:51:43.018Z,100103.75
2024-02-18T11:54:10.764Z,100050.19
2024-02-18T11:56:38.224Z,100087.56
2024-02-18T11:59:06.506Z,100070.47
2024-02-18T12:01:37.385Z,100065.78
2024-02-18T12:04:05.202Z,100085.59
2024-02-18T12:06:32.402Z,100078.66
2024-02-18T12:09:01.737Z,100047.88
2024-02-18T12:11:29.713Z,100053.47
2024-02-18T12:13:56.541Z,100033.59
2024-02-18T12:16:24.381Z,100062.63
2024-02-18T12:18:51.637Z,100043.22
2024-02-18T12:21:18.830Z,100030.50
2024-02-18T12:23:47.914Z,100019.78
2024-02-18T12:26:18.965Z,100025.19
2024-02-18T12:28:47.508Z,100010.34
2024-02-18T12:31:14.319Z,100027.09
2024-02-18T12:33:42.416Z,100010.88
2024-02-18T12:36:09.410Z,100015.19
2024-02-18T12:38:38.576Z,100023.66
2024-02-18T12:41:09.026Z,99980.25
2024-02-18T12:46:09.674Z,99956.41
2024-02-18T12:48:37.956Z,100006.03
2024-02-18T12:51:14.024Z,99993.81
2024-02-18T12:53:42.517Z,99948.72
2024-02-18T12:56:12.398Z,99974.44
2024-02-18T12:58:40.161Z,99945.22
2024-02-18T13:01:08.405Z,99988.81
2024-02-18T13:03:37.543Z,99996.53
2024-02-18T13:06:05.064Z,99972.09
2024-02-18T13:08:35.692Z,99988.84
2024-02-18T13:11:03.243Z,99955.41
2024-02-18T13:13:30.184Z,99923.06
2024-02-18T13:15:57.248Z,99970.75
2024-02-18T13:18:25.657Z,99921.47
2024-02-18T13:20:52.560Z,99933.59
2024-02-18T13:23:19.305Z,99908.41
2024-02-18T13:25:46.152Z,99841.66
2024-02-18T13:28:14.466Z,99968.63
2024-02-18T13:30:42.353Z,99936.72
2024-02-18T13:33:09.907Z,99953.09
2024-02-18T13:35:36.809Z,99907.63
2024-02-18T13:38:04.613Z,99861.06
2024-02-18T13:40:33.692Z,99946.75
2024-02-18T13:43:02.232Z,99897.03
2024-02-18T13:45:29.497Z,99826.19
2024-02-18T13:47:58.913Z,99861.91
2024-02-18T13:50:26.987Z,99937.25
2024-02-18T13:52:53.804Z,99854.88
2024-02-18T13:55:20.743Z,99887.84
2024-02-18T13:57:47.932Z,99940.47
2024-02-18T14:00:16.170Z,99939.03
2024-02-18T14:02:43.551Z,99938.75
2024-02-18T14:05:20.038Z,99920.63
2024-02-18T14:07:47.759Z,99921.53
2024-02-18T14:10:18.171Z,99856.72
2024-02-18T14:12:45.124Z,99921.13
2024-02-18T14:15:13.635Z,99888.94
2024-02-18T14:17:43.919Z,99897.34
2024-02-18T14:20:13.779Z,99923.38
2024-02-18T14:22:41.327Z,99914.69
2024-02-18T14:25:10.263Z,99901.28
2024-02-18T14:27:38.690Z,99914.63
2024-02-18T14:30:06.004Z,99878.41
2024-02-18T14:32:32.910Z,99877.34
2024-02-18T14:35:02.827Z,99845.28
2024-02-18T14:37:29.716Z,99891.72
2024-02-18T14:39:56.495Z,99871.81
2024-02-18T14:42:23.818Z,99890.16
2024-02-18T14:44:54.882Z,99902.84
2024-02-18T14:47:23.511Z,99913.88
2024-02-18T14:49:50.434Z,99882.34
2024-02-18T14:52:17.188Z,99839.00
2024-02-18T14:54:45.498Z,99901.00
2024-02-18T14:57:12.170Z,99882.13
2024-02-18T14:59:40.115Z,99895.19
2024-02-18T15:02:07.826Z,99911.25
2024-02-18T15:04:36.964Z,99879.09
2024-02-18T15:07:04.849Z,99911.91
2024-02-18T15:09:33.624Z,99818.25
2024-02-18T15:12:00.688Z,99895.41
2024-02-18T15:14:28.129Z,99860.34
2024-02-18T15:16:55.735Z,99881.97
2024-02-18T15:19:23.634Z,99887.84
2024-02-18T15:21:52.865Z,99861.38
2024-02-18T15:24:19.624Z,99863.69
2024-02-18T15:26:47.156Z,99849.84
2024-02-18T15:29:16.891Z,99867.88
2024-02-18T15:31:43.741Z,99868.38
2024-02-18T15:34:14.453Z,99815.81
2024-02-18T15:36:43.422Z,99852.84
2024-02-18T15:39:12.428Z,99848.66
2024-02-18T15:41:39.701Z,99843.78
2024-02-18T15:44:06.741Z,99837.81
2024-02-18T15:46:33.493Z,99878.31
2024-02-18T15:49:00.697Z,99853.69
2024-02-18T15:51:31.058Z,99805.78
2024-02-18T15:53:59.130Z,99869.47
2024-02-18T15:56:27.599Z,99847.16
2024-02-18T15:58:56.566Z,99845.91
2024-02-18T16:01:24.101Z,99861.13
2024-02-18T16:03:51.666Z,99853.94
2024-02-18T16:06:19.509Z,99836.31
2024-02-18T16:08:46.340Z,99855.13
2024-02-18T16:11:13.275Z,99828.91
2024-02-18T16:13:44.366Z,99830.78
2024-02-18T16:16:13.575Z,99829.31
2024-02-18T16:18:42.569Z,99796.09
2024-02-18T16:21:10.488Z,99833.25
2024-02-18T16:23:37.242Z,99821.28
2024-02-18T16:26:03.882Z,99806.88
2024-02-18T16:28:31.120Z,99807.59
2024-02-18T16:30:57.968Z,99795.69
2024-02-18T16:33:24.786Z,99820.59
2024-02-18T16:35:51.622Z,99829.72
2024-02-18T16:38:20.916Z,99807.06
2024-02-18T16:40:50.270Z,99726.75
2024-02-18T16:43:17.389Z,99838.06
2024-02-18T16:45:44.090Z,99824.66
2024-02-18T16:48:10.903Z,99835.09
2024-02-18T16:50:38.160Z,99820.31
2024-02-18T16:53:05.161Z,99799.31
2024-02-18T16:55:32.076Z,99837.97
2024-02-18T16:57:59.781Z,99821.03
2024-02-18T17:00:28.224Z,99814.41
2024-02-18T17:02:55.528Z,99823.50
2024-02-18T17:05:24.728Z,99784.34
2024-02-18T17:07:51.840Z,99828.41
2024-02-18T17:10:18.996Z,99780.97
2024-02-18T17:12:48.927Z,99822.53
2024-02-18T17:15:17.488Z,99805.22
2024-02-18T17:17:44.218Z,99821.03
2024-02-18T17:20:13.126Z,99802.81
2024-02-18T17:22:40.277Z,99799.47
2024-02-18T17:25:08.971Z,99809.91
2024-02-18T17:27:35.939Z,99816.63
2024-02-18T17:30:02.716Z,99776.06
2024-02-18T17:32:32.441Z,99820.97
2024-02-18T17:35:05.045Z,99768.31
2024-02-18T17:37:34.282Z,99799.47
2024-02-18T17:40:01.310Z,99756.38
2024-02-18T17:42:27.988Z,99715.34
2024-02-18T17:44:56.843Z,99809.84
2024-02-18T17:47:24.622Z,99814.88
2024-02-18T17:49:51.631Z,99803.75
2024-02-18T17:52:18.938Z,99808.75
2024-02-18T17:54:46.434Z,99817.56
2024-02-18T17:57:14.152Z,99813.16
2024-02-18T17:59:41.966Z,99802.50
2024-02-18T18:02:13.393Z,99821.16
2024-02-18T18:04:40.375Z,99788.94
2024-02-18T18:07:07.791Z,99790.25
2024-02-18T18:09:34.883Z,99800.84
2024-02-18T18:12:03.932Z,99758.22
2024-02-18T18:14:30.634Z,99796.69
2024-02-18T18:16:58.341Z,99791.16
2024-02-18T18:19:28.816Z,99798.53
2024-02-18T18:21:56.087Z,99758.22
2024-02-18T18:24:23.072Z,99774.41
2024-02-18T18:26:51.390Z,99800.03
2024-02-18T18:29:18.671Z,99774.13
2024-02-18T18:31:48.797Z,99785.03
2024-02-18T18:34:16.749Z,99800.97
2024-02-18T18:36:43.744Z,99687.19
2024-02-18T18:39:11.877Z,99694.06
2024-02-18T18:45:15.773Z,99809.91
2024-02-18T18:48:07.424Z,99682.41
2024-02-18T18:50:34.134Z,99749.38
2024-02-18T18:53:01.016Z,99802.94
2024-02-18T18:55:27.756Z,99712.63
2024-02-18T18:57:56.653Z,99787.66
2024-02-18T19:00:24.755Z,99717.13
2024-02-18T19:02:54.390Z,99792.19
2024-02-18T19:05:22.869Z,99740.16
2024-02-18T19:07:51.781Z,99776.97
2024-02-18T19:10:19.433Z,99788.25
2024-02-18T19:12:46.178Z,99771.44
2024-02-18T19:15:14.638Z,99786.31
2024-02-18T19:17:41.386Z,99792.34
2024-02-18T19:20:08.960Z,99757.00
2024-02-18T19:22:39.009Z,99703.41
2024-02-18T19:25:06.634Z,99801.25
2024-02-18T19:27:34.623Z,99758.19
2024-02-18T19:30:04.435Z,99729.72
2024-02-18T19:32:33.215Z,99760.50
2024-02-18T19:35:00.221Z,99747.56
2024-02-18T19:37:28.992Z,99779.47
2024-02-18T19:39:56.788Z,99666.84
2024-02-18T19:42:23.739Z,99698.72
2024-02-18T19:44:51.970Z,99741.75
2024-02-18T19:47:18.984Z,99762.84
2024-02-18T19:49:46.142Z,99737.31
2024-02-18T19:52:13.640Z,99761.28
2024-02-18T19:54:43.265Z,99724.16
2024-02-18T19:57:10.025Z,99723.06
2024-02-18T19:59:46.605Z,99709.75
2024-02-18T20:02:15.905Z,99748.28
2024-02-18T20:04:44.377Z,99725.16
2024-02-18T20:07:12.287Z,99766.63
2024-02-18T20:09:40.113Z,99759.44
2024-02-18T20:12:07.993Z,99764.13
2024-02-18T20:14:34.784Z,99766.31
2024-02-18T20:17:01.957Z,99726.34
2024-02-18T20:19:28.761Z,99755.00
2024-02-18T20:21:57.073Z,99714.78
2024-02-18T20:24:25.365Z,99725.91
2024-02-18T20:26:57.532Z,99684.25
2024-02-18T20:29:25.377Z,99721.31
2024-02-18T20:31:52.570Z,99765.88
2024-02-18T20:34:19.649Z,99756.56
2024-02-18T20:36:47.512Z,99760.88
2024-02-18T20:39:14.417Z,99701.09
2024-02-18T20:41:41.378Z,99780.72
2024-02-18T20:44:08.088Z,99759.00
2024-02-18T20:46:35.980Z,99772.78
2024-02-18T20:49:03.726Z,99774.75
2024-02-18T20:51:31.104Z,99770.75
2024-02-18T20:53:58.969Z,99760.94
2024-02-18T20:56:25.634Z,99771.44
2024-02-18T20:58:52.815Z,99754.75
2024-02-18T21:01:19.647Z,99674.03
2024-02-18T21:03:47.216Z,99679.84
2024-02-18T21:06:16.654Z,99777.78
2024-02-18T21:08:43.374Z,99763.84
2024-02-18T21:11:11.766Z,99713.75
2024-02-18T21:13:39.333Z,99787.91
2024-02-18T21:16:06.630Z,99677.91
2024-02-18T21:18:33.578Z,99701.81
2024-02-18T21:21:00.628Z,99767.75
2024-02-18T21:23:28.225Z,99779.28
2024-02-18T21:25:57.991Z,99740.44
2024-02-18T21:28:25.747Z,99764.91
2024-02-18T21:30:56.383Z,99755.81
2024-02-18T21:33:28.102Z,99790.38
2024-02-18T21:35:54.915Z,99709.19
2024-02-18T21:38:22.765Z,99731.72
2024-02-18T21:40:49.653Z,99797.69
2024-02-18T21:43:17.863Z,99735.81
2024-02-18T21:45:46.360Z,99769.22
2024-02-18T21:48:14.074Z,99758.19
2024-02-18T21:50:41.793Z,99779.53
2024-02-18T21:53:08.596Z,99719.59
2024-02-18T21:55:37.281Z,99693.03
2024-02-18T21:58:04.558Z,99697.69
2024-02-18T22:00:35.721Z,99750.97
2024-02-18T22:03:04.931Z,99749.00
2024-02-18T22:05:31.953Z,99762.91
2024-02-18T22:08:01.044Z,99685.41
2024-02-18T22:10:28.119Z,99738.28
2024-02-18T22:12:55.255Z,99723.25
2024-02-18T22:15:22.274Z,99689.56
2024-02-18T22:17:52.982Z,99672.66
2024-02-18T22:20:19.971Z,99762.53
2024-02-18T22:22:46.711Z,99623.22
2024-02-18T22:25:13.914Z,99743.47
2024-02-18T22:27:41.004Z,99739.03
2024-02-18T22:30:20.804Z,99734.28
2024-02-18T22:32:47.653Z,99740.84
2024-02-18T22:35:15.578Z,99760.44
2024-02-18T22:37:42.846Z,99671.28
2024-02-18T22:40:10.530Z,99748.88
2024-02-18T22:42:39.256Z,99751.38
2024-02-18T22:45:07.913Z,99711.50
2024-02-18T22:47:35.005Z,99752.72
2024-02-18T22:50:03.621Z,99737.16
2024-02-18T22:52:32.119Z,99643.91
2024-02-18T22:54:58.796Z,99640.91
2024-02-18T22:57:25.464Z,99740.66
2024-02-18T22:59:52.160Z,99740.75
2024-02-18T23:02:22.129Z,99728.75
2024-02-18T23:04:48.803Z,99745.00
2024-02-18T23:07:15.702Z,99727.81
2024-02-18T23:09:49.588Z,99727.13
2024-02-18T23:12:16.393Z,99720.25
2024-02-18T23:14:44.124Z,99740.25
2024-02-18T23:17:10.809Z,99741.53
2024-02-18T23:19:42.837Z,99680.84
2024-02-18T23:22:11.406Z,99706.69
2024-02-18T23:24:46.414Z,99675.50
2024-02-18T23:27:14.795Z,99747.50
2024-02-18T23:29:43.345Z,99631.25
2024-02-18T23:32:11.529Z,99643.59
2024-02-18T23:34:38.364Z,99673.81
2024-02-18T23:37:08.035Z,99706.28
2024-02-18T23:39:34.855Z,99708.94
2024-02-18T23:42:03.328Z,99703.75
2024-02-18T23:44:30.225Z,99697.56
2024-02-18T23:46:57.020Z,99695.75
2024-02-18T23:49:25.897Z,99719.38
2024-02-18T23:51:53.451Z,99631.06
2024-02-18T23:54:20.627Z,99681.38
2024-02-18T23:56:54.217Z,99723.84
2024-02-18T23:59:21.466Z,99687.59
